Time;durP1;ratioP1;P1;durP2;ratioP2;P2;SDS_P1;SDS_P2;PMS_P1;PMS_P2;Temp;Humidity;BMP_temperature;BMP_pressure;BME280_temperature;BME280_humidity;BME280_pressure;Samples;Min_cycle;Max_cycle;Signal;HPM_P1;HPM_P2
2022/03/08 00:00:14;;;;;;;18.80;11.80;;;1.60;55.00;;;;;;4957421;29;20564;-84
2022/03/08 05:10:51;;;;;;;13.13;7.82;;;-0.70;64.30;;;;;;5586188;23;20276;-84
2022/03/08 05:13:18;;;;;;;12.57;7.85;;;-0.70;64.30;;;;;;4964264;29;20051;-80
2022/03/08 05:15:48;;;;;;;12.57;7.47;;;-0.60;64.50;;;;;;4978826;28;20133;-87
2022/03/08 05:18:16;;;;;;;12.98;7.55;;;-0.60;65.50;;;;;;4985104;28;20511;-87
2022/03/08 05:20:43;;;;;;;12.27;7.47;;;-0.60;65.10;;;;;;4949882;29;20079;-84
2022/03/08 05:23:11;;;;;;;12.00;7.55;;;-0.60;65.20;;;;;;4980321;28;20070;-88
2022/03/08 05:25:38;;;;;;;13.82;7.50;;;-0.50;65.10;;;;;;4966743;29;20051;-90
2022/03/08 05:28:10;;;;;;;11.63;7.35;;;-0.50;65.00;;;;;;4968221;29;20047;-91
2022/03/08 05:30:42;;;;;;;13.23;7.60;;;-0.50;65.10;;;;;;4967985;29;20059;-87
2022/03/08 05:33:09;;;;;;;12.45;7.15;;;-0.50;65.20;;;;;;4966501;29;20047;-84
2022/03/08 05:35:37;;;;;;;13.75;7.78;;;-0.50;65.10;;;;;;4949805;29;20146;-86
2022/03/08 05:38:05;;;;;;;13.15;7.85;;;-0.50;65.10;;;;;;4966597;29;20051;-85
2022/03/08 05:40:35;;;;;;;12.93;7.10;;;-0.50;64.90;;;;;;4969385;29;20066;-89
2022/03/08 05:43:04;;;;;;;15.80;8.32;;;-0.50;65.50;;;;;;4966695;29;20043;-88
2022/03/08 05:45:39;;;;;;;13.75;7.93;;;-0.50;65.40;;;;;;4967573;29;20518;-91
2022/03/08 05:48:06;;;;;;;12.27;7.68;;;-0.50;65.70;;;;;;4965296;29;20051;-88
2022/03/08 05:50:33;;;;;;;13.05;7.75;;;-0.50;65.60;;;;;;4965241;29;20118;-87
2022/03/08 05:53:09;;;;;;;11.88;7.30;;;-0.60;65.40;;;;;;4964969;29;20500;-89
2022/03/08 05:55:41;;;;;;;12.00;7.70;;;-0.50;65.40;;;;;;4967228;28;20059;-88
2022/03/08 05:58:12;;;;;;;13.60;7.63;;;-0.60;65.70;;;;;;4966957;29;20055;-84
2022/03/08 06:00:42;;;;;;;12.33;7.63;;;-0.70;66.00;;;;;;4951898;28;20085;-80
2022/03/08 06:03:10;;;;;;;12.35;7.13;;;-0.70;66.30;;;;;;4982890;28;20075;-79
2022/03/08 06:05:39;;;;;;;15.88;7.93;;;-0.70;66.50;;;;;;4964069;28;20143;-79
2022/03/08 06:08:10;;;;;;;13.95;7.57;;;-0.70;66.80;;;;;;4982349;28;20058;-80
2022/03/08 06:10:41;;;;;;;12.43;7.40;;;-0.70;67.00;;;;;;4984059;28;20153;-81
2022/03/08 06:13:08;;;;;;;12.82;7.65;;;-0.70;67.20;;;;;;4984441;28;20389;-80
2022/03/08 06:15:39;;;;;;;11.85;7.10;;;-0.70;67.20;;;;;;4984585;28;20074;-80
2022/03/08 06:18:14;;;;;;;12.15;7.28;;;-0.60;67.40;;;;;;4982705;28;20463;-79
2022/03/08 06:20:45;;;;;;;12.50;6.72;;;-0.60;67.40;;;;;;4968642;28;20094;-78
2022/03/08 06:23:12;;;;;;;13.00;7.10;;;-0.50;67.40;;;;;;4965164;28;20070;-79
2022/03/08 06:25:41;;;;;;;14.55;7.88;;;-0.40;67.60;;;;;;4983325;28;20046;-78
2022/03/08 06:28:11;;;;;;;11.68;7.28;;;-0.40;67.30;;;;;;4982511;28;20070;-78
2022/03/08 06:30:41;;;;;;;12.50;7.03;;;-0.30;67.20;;;;;;4983815;28;20109;-86
2022/03/08 06:33:15;;;;;;;10.30;6.85;;;-0.30;67.20;;;;;;4984226;28;20074;-78
2022/03/08 06:35:44;;;;;;;12.15;6.70;;;-0.20;67.20;;;;;;4978930;28;20081;-80
2022/03/08 06:38:18;;;;;;;11.98;6.78;;;-0.20;67.10;;;;;;4966744;28;20058;-78
2022/03/08 06:40:50;;;;;;;12.25;7.07;;;-0.10;66.90;;;;;;4983272;28;20129;-80
2022/03/08 06:43:22;;;;;;;14.02;7.75;;;0.00;66.70;;;;;;4981725;28;20050;-79
2022/03/08 06:45:50;;;;;;;10.60;6.85;;;0.00;66.50;;;;;;4980555;28;20483;-82
2022/03/08 06:48:21;;;;;;;12.40;7.25;;;0.10;66.60;;;;;;4980638;28;20054;-83
2022/03/08 06:50:55;;;;;;;11.88;6.65;;;0.10;66.50;;;;;;4983118;28;20059;-85
2022/03/08 06:53:24;;;;;;;12.93;7.45;;;0.10;66.70;;;;;;4985481;28;20058;-82
2022/03/08 06:55:53;;;;;;;12.65;7.45;;;0.20;66.40;;;;;;4982869;28;20046;-80
2022/03/08 06:58:20;;;;;;;11.60;7.53;;;0.10;66.30;;;;;;4982427;28;20086;-80
2022/03/08 07:00:48;;;;;;;11.88;7.07;;;0.20;66.30;;;;;;4982337;28;20078;-80
2022/03/08 07:03:15;;;;;;;13.00;7.55;;;0.20;66.40;;;;;;4983992;28;20500;-82
2022/03/08 07:05:46;;;;;;;12.80;7.43;;;0.30;66.40;;;;;;4984497;28;20077;-88
2022/03/08 07:08:14;;;;;;;13.02;7.18;;;0.30;66.50;;;;;;4989317;28;20057;-87
2022/03/08 07:10:42;;;;;;;12.48;7.65;;;0.40;66.80;;;;;;4986261;28;20118;-88
2022/03/08 07:13:09;;;;;;;12.10;7.15;;;0.40;66.90;;;;;;4985766;28;20085;-80
2022/03/08 07:15:38;;;;;;;14.77;7.63;;;0.50;67.10;;;;;;4982781;28;20138;-80
2022/03/08 07:18:06;;;;;;;11.88;6.85;;;0.50;67.20;;;;;;4982945;28;20054;-82
2022/03/08 07:20:35;;;;;;;11.80;6.68;;;0.60;67.10;;;;;;4984682;28;20054;-81
2022/03/08 07:23:03;;;;;;;11.70;7.28;;;0.70;67.10;;;;;;4984672;28;20111;-80
2022/03/08 07:25:34;;;;;;;13.10;7.45;;;0.70;67.60;;;;;;4984041;28;20138;-80
2022/03/08 07:28:01;;;;;;;10.95;6.72;;;0.80;67.60;;;;;;4981834;28;20385;-81
2022/03/08 07:30:29;;;;;;;9.95;6.57;;;0.90;66.90;;;;;;4981415;28;20054;-80
2022/03/08 07:32:56;;;;;;;10.85;6.80;;;1.00;66.90;;;;;;4981132;28;20054;-81
2022/03/08 07:35:24;;;;;;;12.02;7.10;;;1.00;66.70;;;;;;4985245;28;20047;-83
2022/03/08 07:37:52;;;;;;;12.07;6.80;;;1.10;66.60;;;;;;4989521;28;20057;-89
2022/03/08 07:40:21;;;;;;;9.80;6.57;;;1.30;66.70;;;;;;4987212;28;20134;-81
2022/03/08 07:42:51;;;;;;;11.63;7.10;;;1.30;66.70;;;;;;4986240;28;20106;-80
2022/03/08 07:45:22;;;;;;;11.52;6.78;;;1.40;66.80;;;;;;4988172;28;20046;-85
2022/03/08 07:47:54;;;;;;;10.27;6.43;;;1.50;66.90;;;;;;4989822;28;20093;-90
2022/03/08 07:50:27;;;;;;;9.93;5.85;;;1.60;67.10;;;;;;4988146;28;20050;-86
2022/03/08 07:52:54;;;;;;;9.85;6.03;;;1.70;67.00;;;;;;4984758;28;20130;-88
2022/03/08 07:55:24;;;;;;;11.68;7.25;;;1.80;66.90;;;;;;4984750;28;20500;-89
2022/03/08 07:57:51;;;;;;;11.77;6.60;;;1.90;66.70;;;;;;4984826;28;20132;-88
2022/03/08 08:00:18;;;;;;;9.50;6.18;;;2.00;66.80;;;;;;4984605;28;20078;-87
2022/03/08 08:02:45;;;;;;;10.95;6.63;;;2.10;66.70;;;;;;4976991;28;20089;-90
2022/03/08 08:05:14;;;;;;;9.73;6.40;;;2.20;66.40;;;;;;4965602;29;20134;-86
2022/03/08 08:07:41;;;;;;;11.45;6.72;;;2.30;66.30;;;;;;4965127;29;20106;-86
2022/03/08 08:10:11;;;;;;;11.18;6.90;;;2.30;65.80;;;;;;4962004;29;20062;-83
2022/03/08 08:12:40;;;;;;;9.50;6.28;;;2.40;65.60;;;;;;4961879;29;20047;-81
2022/03/08 08:15:10;;;;;;;9.15;6.03;;;2.50;65.50;;;;;;4962956;29;20489;-81
2022/03/08 08:17:37;;;;;;;10.30;6.50;;;2.60;65.20;;;;;;4963934;29;20051;-86
2022/03/08 08:20:06;;;;;;;10.13;6.63;;;2.70;64.50;;;;;;4960845;28;20127;-80
2022/03/08 08:22:34;;;;;;;9.90;6.40;;;2.70;64.10;;;;;;4960785;29;20083;-80
2022/03/08 08:25:01;;;;;;;8.55;6.13;;;2.80;64.30;;;;;;4959835;29;20130;-80
2022/03/08 08:27:29;;;;;;;8.88;5.95;;;2.90;64.60;;;;;;4960000;29;20415;-80
2022/03/08 08:30:09;;;;;;;10.68;6.28;;;3.00;63.50;;;;;;4959667;29;20087;-80
2022/03/08 08:32:36;;;;;;;10.40;6.70;;;3.00;63.20;;;;;;4960160;29;20049;-80
2022/03/08 08:35:07;;;;;;;9.88;6.60;;;3.10;62.80;;;;;;4961740;29;20106;-80
2022/03/08 08:37:34;;;;;;;9.07;5.88;;;3.10;62.10;;;;;;4959620;29;20142;-82
2022/03/08 08:40:02;;;;;;;9.93;6.38;;;3.20;61.80;;;;;;4960834;29;20138;-81
2022/03/08 08:42:29;;;;;;;9.63;6.07;;;3.20;62.30;;;;;;4960560;29;20488;-82
2022/03/08 08:44:58;;;;;;;8.57;5.90;;;3.30;61.40;;;;;;4960702;29;20130;-79
2022/03/08 08:47:26;;;;;;;10.95;5.82;;;3.30;61.20;;;;;;4960956;29;20579;-82
2022/03/08 08:49:53;;;;;;;10.02;5.68;;;3.40;61.20;;;;;;4960833;29;20087;-85
2022/03/08 08:52:22;;;;;;;9.07;6.03;;;3.50;61.10;;;;;;4963306;29;20118;-93
2022/03/08 08:54:49;;;;;;;12.15;6.47;;;3.50;60.80;;;;;;4965180;29;20468;-86
2022/03/08 08:57:18;;;;;;;8.30;5.68;;;3.60;60.50;;;;;;4965660;29;20579;-86
2022/03/08 08:59:45;;;;;;;10.07;5.93;;;3.70;60.30;;;;;;4966237;29;20449;-88
2022/03/08 09:02:15;;;;;;;9.40;5.53;;;3.70;59.60;;;;;;4961288;29;20086;-82
2022/03/08 09:04:42;;;;;;;11.15;6.35;;;3.70;59.50;;;;;;4960136;29;20086;-80
2022/03/08 09:07:11;;;;;;;10.07;5.85;;;3.80;59.40;;;;;;4958780;29;20542;-81
2022/03/08 09:09:40;;;;;;;9.93;6.20;;;3.80;58.80;;;;;;4959348;29;20074;-85
2022/03/08 09:12:10;;;;;;;9.13;6.10;;;3.90;58.50;;;;;;4960604;29;20055;-79
2022/03/08 09:14:37;;;;;;;10.40;6.00;;;3.90;58.30;;;;;;4958907;29;20087;-81
2022/03/08 09:17:05;;;;;;;9.13;5.68;;;3.90;58.80;;;;;;4958832;29;20054;-81
2022/03/08 09:19:36;;;;;;;10.27;5.00;;;4.00;57.80;;;;;;4959052;29;20469;-81
2022/03/08 09:22:04;;;;;;;11.80;6.38;;;4.00;57.40;;;;;;4958615;29;20086;-79
2022/03/08 09:24:32;;;;;;;9.45;5.75;;;4.00;56.90;;;;;;4958471;29;20134;-80
2022/03/08 09:26:59;;;;;;;7.65;5.05;;;4.10;56.90;;;;;;4957772;29;20058;-81
2022/03/08 09:29:29;;;;;;;9.35;5.72;;;4.30;75.40;;;;;;4958132;29;20102;-85
2022/03/08 09:31:57;;;;;;;9.23;5.13;;;;;;;;;;4957646;29;20051;-79
2022/03/08 09:34:24;;;;;;;8.77;5.30;;;4.30;56.30;;;;;;4957487;29;20058;-82
2022/03/08 09:36:53;;;;;;;7.80;5.15;;;4.40;56.20;;;;;;4957951;29;20459;-84
2022/03/08 09:39:20;;;;;;;9.10;5.10;;;4.40;55.80;;;;;;4968396;28;20059;-84
2022/03/08 09:41:51;;;;;;;8.70;5.13;;;4.50;55.10;;;;;;4957790;28;20078;-88
2022/03/08 09:44:19;;;;;;;8.80;5.10;;;4.50;54.80;;;;;;4964058;28;20055;-88
2022/03/08 09:46:48;;;;;;;7.65;5.18;;;4.50;54.60;;;;;;4975914;28;20489;-86
2022/03/08 09:49:15;;;;;;;9.75;5.53;;;4.60;54.40;;;;;;4965613;28;20142;-91
2022/03/08 09:51:43;;;;;;;10.02;5.18;;;4.60;54.20;;;;;;4960436;28;20106;-92
2022/03/08 09:54:14;;;;;;;8.18;5.28;;;4.60;53.70;;;;;;4966268;28;20054;-93
2022/03/08 09:56:41;;;;;;;8.55;5.05;;;4.70;53.30;;;;;;4976515;28;20082;-91
2022/03/08 09:59:09;;;;;;;8.52;5.30;;;4.80;52.50;;;;;;4975458;28;20179;-90
2022/03/08 10:01:36;;;;;;;11.07;5.40;;;4.80;51.90;;;;;;4976706;28;20054;-88
2022/03/08 10:04:04;;;;;;;9.20;5.18;;;4.80;51.60;;;;;;4976202;28;20074;-89
2022/03/08 10:06:42;;;;;;;9.13;5.00;;;4.90;51.20;;;;;;4968450;28;20086;-89
2022/03/08 10:09:17;;;;;;;8.73;4.95;;;4.90;51.50;;;;;;4956303;29;20082;-92
2022/03/08 10:11:47;;;;;;;9.10;5.15;;;5.00;51.30;;;;;;4956319;29;20055;-89
2022/03/08 10:14:37;;;;;;;7.60;5.05;;;5.00;51.00;;;;;;4957115;29;20079;-90
2022/03/08 10:17:05;;;;;;;9.80;5.72;;;5.00;50.50;;;;;;4957441;29;20048;-86
2022/03/08 10:19:33;;;;;;;9.35;5.30;;;5.00;50.10;;;;;;4968200;28;20508;-89
2022/03/08 10:22:01;;;;;;;8.75;5.32;;;5.10;50.20;;;;;;4957712;29;20090;-92
2022/03/08 10:24:31;;;;;;;8.27;5.30;;;5.10;56.10;;;;;;4955998;29;20154;-82
2022/03/08 10:27:02;;;;;;;10.45;5.55;;;5.20;50.60;;;;;;4954505;29;20070;-81
2022/03/08 10:29:34;;;;;;;8.15;5.13;;;5.30;50.10;;;;;;4954127;29;20129;-84
2022/03/08 10:32:07;;;;;;;9.57;4.80;;;5.30;49.40;;;;;;4956123;28;20055;-86
2022/03/08 10:34:37;;;;;;;7.85;5.20;;;;;;;;;;4958320;29;20051;-88
2022/03/08 10:37:10;;;;;;;8.27;4.97;;;5.30;48.70;;;;;;4963618;29;20043;-89
2022/03/08 10:39:54;;;;;;;11.65;5.80;;;5.30;49.10;;;;;;4963654;29;20047;-89
2022/03/08 10:42:26;;;;;;;8.50;5.10;;;5.40;49.20;;;;;;4964811;28;20560;-89
2022/03/08 10:45:02;;;;;;;9.05;5.38;;;5.50;49.00;;;;;;4967445;29;20142;-91
2022/03/08 10:55:59;;;;;;;7.90;5.25;;;5.70;48.30;;;;;;4967117;29;20051;-88
2022/03/08 10:58:27;;;;;;;7.80;5.25;;;5.80;48.50;;;;;;4945171;29;20866;-90
2022/03/08 11:01:00;;;;;;;9.50;5.57;;;5.80;48.50;;;;;;4952146;29;20059;-82
2022/03/08 11:03:27;;;;;;;9.05;5.30;;;5.90;48.20;;;;;;4947446;29;20119;-84
2022/03/08 11:06:00;;;;;;;9.32;5.55;;;5.90;48.30;;;;;;4965317;29;20082;-85
2022/03/08 11:08:28;;;;;;;12.10;5.88;;;6.00;47.80;;;;;;4964514;28;20114;-87
2022/03/08 11:10:57;;;;;;;9.48;5.78;;;6.10;47.70;;;;;;4963245;29;20079;-86
2022/03/08 11:13:25;;;;;;;8.38;5.20;;;6.10;47.70;;;;;;4962096;29;20067;-79
2022/03/08 11:15:52;;;;;;;9.73;5.53;;;6.20;47.30;;;;;;4959911;29;20112;-88
2022/03/08 11:18:20;;;;;;;8.55;5.38;;;6.20;47.30;;;;;;4944194;29;20059;-80
2022/03/08 11:20:49;;;;;;;7.78;4.95;;;6.20;47.30;;;;;;4984975;23;20077;-85
2022/03/08 11:23:16;;;;;;;8.93;5.80;;;6.30;47.30;;;;;;4976917;28;20102;-82
2022/03/08 11:25:47;;;;;;;8.57;5.38;;;6.40;50.60;;;;;;4971303;28;20502;-82
2022/03/08 11:28:16;;;;;;;8.65;5.20;;;6.70;52.10;;;;;;4971155;28;20061;-82
2022/03/08 11:30:47;;;;;;;8.15;5.05;;;6.80;49.60;;;;;;4971298;28;20660;-82
2022/03/08 11:33:22;;;;;;;7.72;4.95;;;6.90;48.40;;;;;;4971477;28;20055;-84
2022/03/08 11:35:57;;;;;;;10.23;6.32;;;6.90;47.40;;;;;;4971020;28;20491;-82
2022/03/08 11:38:24;;;;;;;8.95;5.65;;;7.00;46.80;;;;;;4970915;28;20058;-82
2022/03/08 11:40:54;;;;;;;8.60;5.47;;;7.00;46.70;;;;;;4971149;28;20047;-81
2022/03/08 11:43:37;;;;;;;8.15;5.15;;;7.10;46.40;;;;;;4971135;28;20061;-82
2022/03/08 11:46:16;;;;;;;11.00;5.68;;;7.10;46.40;;;;;;4970693;28;20047;-82
2022/03/08 11:48:56;;;;;;;8.07;5.30;;;7.20;46.10;;;;;;4971203;28;20051;-82
2022/03/08 11:51:25;;;;;;;8.65;5.85;;;7.30;46.10;;;;;;4971161;28;20054;-82
2022/03/08 11:54:06;;;;;;;8.70;5.65;;;7.40;46.10;;;;;;4971347;28;20053;-82
2022/03/08 11:56:45;;;;;;;8.88;5.28;;;7.50;45.50;;;;;;4974934;28;20078;-81
2022/03/08 11:59:14;;;;;;;8.45;5.35;;;7.60;45.20;;;;;;4971412;28;20058;-82
2022/03/08 12:01:42;;;;;;;7.82;4.80;;;7.70;45.30;;;;;;4955626;29;20587;-83
2022/03/08 12:04:13;;;;;;;10.50;5.15;;;7.80;45.20;;;;;;4954973;29;20055;-81
2022/03/08 12:06:42;;;;;;;8.13;5.00;;;7.90;44.30;;;;;;4955498;29;20133;-83
2022/03/08 12:09:12;;;;;;;9.05;5.57;;;8.00;44.60;;;;;;4955140;29;20552;-82
2022/03/08 12:11:46;;;;;;;8.43;5.55;;;8.10;44.10;;;;;;4958860;28;20050;-82
2022/03/08 12:14:18;;;;;;;8.35;4.97;;;8.20;43.80;;;;;;4974402;28;20058;-83
2022/03/08 12:16:48;;;;;;;8.48;4.97;;;8.20;43.60;;;;;;4974495;28;20072;-82
2022/03/08 12:19:32;;;;;;;8.65;5.03;;;8.30;44.00;;;;;;4974308;28;20062;-80
2022/03/08 12:22:00;;;;;;;8.77;6.03;;;8.50;43.90;;;;;;4973960;28;20055;-83
2022/03/08 12:24:28;;;;;;;8.40;5.35;;;8.70;52.80;;;;;;4974115;28;20420;-83
2022/03/08 12:27:02;;;;;;;8.60;5.93;;;8.70;43.30;;;;;;4973976;28;20086;-82
2022/03/08 12:29:36;;;;;;;9.10;5.80;;;8.80;43.10;;;;;;4974504;28;20054;-83
2022/03/08 12:32:37;;;;;;;9.73;6.38;;;9.00;45.50;;;;;;4973656;28;20146;-81
2022/03/08 12:35:15;;;;;;;10.18;5.70;;;9.20;46.10;;;;;;4975040;28;20058;-84
2022/03/08 12:37:49;;;;;;;9.23;6.05;;;9.20;46.60;;;;;;4975409;28;20051;-81
2022/03/08 12:40:26;;;;;;;9.48;5.25;;;9.20;53.00;;;;;;4974085;28;20082;-82
2022/03/08 12:42:56;;;;;;;9.43;5.72;;;9.70;57.50;;;;;;4974074;28;20126;-83
2022/03/08 12:45:26;;;;;;;8.52;5.65;;;;;;;;;;4973576;28;20043;-81
2022/03/08 12:47:56;;;;;;;7.80;5.43;;;;;;;;;;4973566;28;20129;-83
2022/03/08 12:50:25;;;;;;;8.50;5.50;;;;;;;;;;4973469;28;20057;-82
2022/03/08 12:52:55;;;;;;;8.55;5.80;;;;;;;;;;4973800;28;20043;-83
2022/03/08 12:55:24;;;;;;;9.10;5.88;;;;;;;;;;4973829;28;20050;-82
2022/03/08 12:57:54;;;;;;;8.10;5.15;;;;;;;;;;4973707;28;20062;-84
2022/03/08 13:00:28;;;;;;;9.07;5.47;;;;;;;;;;4973698;28;20504;-81
2022/03/08 13:02:56;;;;;;;9.02;5.53;;;;;;;;;;4973374;28;20125;-82
2022/03/08 13:05:28;;;;;;;7.63;4.97;;;;;;;;;;4973008;28;20129;-83
2022/03/08 13:07:56;;;;;;;8.45;4.97;;;;;;;;;;4974114;28;20046;-83
2022/03/08 13:10:24;;;;;;;7.80;4.38;;;11.20;37.90;;;;;;4974723;28;20057;-81
2022/03/08 13:12:54;;;;;;;7.13;4.60;;;11.20;38.50;;;;;;4971626;28;20054;-82
2022/03/08 13:15:24;;;;;;;6.90;3.95;;;11.30;37.80;;;;;;4973231;28;20503;-80
2022/03/08 13:17:55;;;;;;;7.95;4.40;;;11.40;37.80;;;;;;4972922;28;20298;-80
2022/03/08 13:20:38;;;;;;;7.05;4.28;;;11.50;37.60;;;;;;4972989;28;20069;-80
2022/03/08 13:23:09;;;;;;;8.43;4.50;;;11.60;37.90;;;;;;4972960;28;20055;-81
2022/03/08 13:25:37;;;;;;;7.82;4.63;;;11.90;37.90;;;;;;4972359;28;20046;-82
2022/03/08 13:28:09;;;;;;;7.15;4.80;;;12.00;37.00;;;;;;4959792;28;20053;-80
2022/03/08 13:30:38;;;;;;;7.57;4.50;;;12.20;36.40;;;;;;4953848;29;20130;-80
2022/03/08 13:33:20;;;;;;;6.90;4.63;;;12.20;36.10;;;;;;4953807;29;20062;-80
2022/03/08 13:35:53;;;;;;;7.72;4.90;;;12.30;37.00;;;;;;4953571;29;20057;-81
2022/03/08 13:38:23;;;;;;;7.18;4.38;;;12.50;36.90;;;;;;4953737;29;20058;-82
2022/03/08 13:40:51;;;;;;;7.75;4.88;;;12.60;36.50;;;;;;4953651;29;20118;-80
2022/03/08 13:43:20;;;;;;;7.85;5.05;;;12.70;35.70;;;;;;4953315;29;20047;-80
2022/03/08 13:45:48;;;;;;;7.32;4.55;;;12.80;35.20;;;;;;4969053;28;20552;-81
2022/03/08 13:48:22;;;;;;;8.60;4.97;;;12.80;36.30;;;;;;4972344;28;20134;-80
2022/03/08 13:50:50;;;;;;;7.45;5.05;;;13.00;35.30;;;;;;4972405;28;20167;-81
2022/03/08 13:53:18;;;;;;;7.50;5.00;;;13.20;35.30;;;;;;4972817;28;20094;-80
2022/03/08 13:55:46;;;;;;;8.60;5.63;;;13.50;35.40;;;;;;4972514;28;20530;-79
2022/03/08 13:58:19;;;;;;;7.90;5.20;;;13.80;35.20;;;;;;4972203;28;20052;-80
2022/03/08 14:00:48;;;;;;;7.72;5.07;;;14.00;34.60;;;;;;4972594;28;20138;-81
2022/03/08 14:03:19;;;;;;;9.80;6.00;;;14.40;34.30;;;;;;4972023;28;20054;-79
2022/03/08 14:06:10;;;;;;;7.45;5.35;;;14.60;33.50;;;;;;4972824;28;20133;-81
2022/03/08 14:08:44;;;;;;;9.80;5.93;;;14.80;33.80;;;;;;4967932;28;20428;-80
2022/03/08 14:11:12;;;;;;;7.78;5.88;;;;;;;;;;4970336;28;20542;-80
2022/03/08 14:13:50;;;;;;;7.18;5.50;;;16.00;32.80;;;;;;4980046;28;20050;-83
2022/03/08 14:16:18;;;;;;;8.43;5.57;;;16.90;33.80;;;;;;4986491;28;20055;-82
2022/03/08 14:18:52;;;;;;;8.05;5.70;;;18.40;31.50;;;;;;4987084;28;20341;-81
2022/03/08 14:21:28;;;;;;;6.55;5.15;;;21.10;29.50;;;;;;4985025;28;20057;-81
2022/03/08 14:23:55;;;;;;;8.13;5.22;;;26.00;27.40;;;;;;4992132;28;20074;-82
2022/03/08 14:26:24;;;;;;;8.15;4.97;;;26.40;27.60;;;;;;4992305;28;20081;-83
2022/03/08 14:28:54;;;;;;;6.70;4.95;;;28.90;26.60;;;;;;4978443;28;20073;-82
2022/03/08 14:31:32;;;;;;;6.38;4.47;;;27.00;23.80;;;;;;4979727;28;20047;-80
2022/03/08 14:34:08;;;;;;;6.95;4.60;;;32.10;25.10;;;;;;4971955;28;20057;-81
2022/03/08 14:36:42;;;;;;;6.57;4.70;;;33.90;24.70;;;;;;4972621;28;20548;-80
2022/03/08 14:39:29;;;;;;;6.25;4.32;;;35.50;24.10;;;;;;4971892;28;20400;-81
2022/03/08 14:42:14;;;;;;;5.85;4.55;;;36.40;23.60;;;;;;4971911;28;20067;-81
2022/03/08 14:44:43;;;;;;;5.43;4.00;;;;;;;;;;4971707;28;20131;-81
2022/03/08 14:47:13;;;;;;;5.90;3.95;;;;;;;;;;4971957;28;20046;-82
2022/03/08 14:49:43;;;;;;;6.32;3.58;;;;;;;;;;4971835;28;20496;-81
2022/03/08 14:52:18;;;;;;;5.93;3.50;;;;;;;;;;4971976;28;20476;-80
2022/03/08 14:54:46;;;;;;;4.97;3.40;;;;;;;;;;4971856;28;20058;-80
2022/03/08 14:57:13;;;;;;;5.47;3.70;;;;;;;;;;4970864;28;20415;-79
2022/03/08 14:59:42;;;;;;;4.82;3.38;;;;;;;;;;4971304;28;20464;-79
2022/03/08 15:02:09;;;;;;;4.80;3.25;;;;;;;;;;4971351;28;20435;-81
2022/03/08 15:04:37;;;;;;;4.80;3.25;;;;;;;;;;4971628;28;20510;-81
2022/03/08 15:07:06;;;;;;;5.68;3.78;;;;;;;;;;4971582;28;20053;-80
2022/03/08 15:09:33;;;;;;;5.63;3.20;;;;;;;;;;4971425;28;20131;-80
2022/03/08 15:12:01;;;;;;;5.47;3.75;;;;;;;;;;4969557;28;20399;-78
2022/03/08 15:14:29;;;;;;;4.93;3.58;;;;;;;;;;4971243;28;20416;-79
2022/03/08 15:16:57;;;;;;;5.47;3.40;;;;;;;;;;4971686;28;20055;-80
2022/03/08 15:19:24;;;;;;;4.90;3.70;;;;;;;;;;4971331;28;20138;-80
2022/03/08 15:21:52;;;;;;;5.30;3.50;;;;;;;;;;4970930;28;20143;-80
2022/03/08 15:24:21;;;;;;;6.50;3.42;;;;;;;;;;4971487;28;20048;-79
2022/03/08 15:26:48;;;;;;;5.70;3.22;;;;;;;;;;4971244;28;20053;-80
2022/03/08 15:29:19;;;;;;;7.13;3.60;;;;;;;;;;4972680;28;20134;-80
2022/03/08 15:31:46;;;;;;;7.07;3.40;;;;;;;;;;4976873;28;20043;-80
2022/03/08 15:34:14;;;;;;;5.20;3.58;;;39.10;21.00;;;;;;4975389;28;20051;-79
2022/03/08 15:36:41;;;;;;;7.20;3.17;;;38.80;21.40;;;;;;4976561;28;20133;-79
2022/03/08 15:39:08;;;;;;;4.55;3.20;;;38.40;21.20;;;;;;4974651;28;20409;-81
2022/03/08 15:41:37;;;;;;;5.45;3.08;;;38.00;21.10;;;;;;4975247;28;20149;-80
2022/03/08 15:44:05;;;;;;;6.10;3.40;;;38.10;21.20;;;;;;4974940;28;20047;-81
2022/03/08 15:46:33;;;;;;;4.60;3.10;;;37.70;21.10;;;;;;4974526;28;20078;-81
2022/03/08 15:49:01;;;;;;;4.25;3.15;;;36.90;21.10;;;;;;4974083;28;20051;-81
2022/03/08 15:51:28;;;;;;;5.28;3.25;;;36.90;21.20;;;;;;4974743;28;20069;-81
2022/03/08 15:53:56;;;;;;;5.57;2.92;;;;;;;;;;4974116;28;20121;-78
2022/03/08 15:56:23;;;;;;;4.40;3.05;;;;;;;;;;4974612;28;20078;-79
2022/03/08 15:58:54;;;;;;;4.85;3.10;;;;;;;;;;4974642;28;20054;-82
2022/03/08 16:01:21;;;;;;;4.10;2.90;;;36.20;35.60;;;;;;4981002;28;20082;-80
2022/03/08 16:03:48;;;;;;;5.38;3.17;;;35.70;20.80;;;;;;4984052;28;20119;-79
2022/03/08 16:06:15;;;;;;;5.70;2.95;;;35.10;20.80;;;;;;4983237;28;20110;-81
2022/03/08 16:08:42;;;;;;;5.18;3.05;;;34.80;23.40;;;;;;4978516;28;20088;-80
2022/03/08 16:11:09;;;;;;;4.75;3.20;;;34.30;21.00;;;;;;4978657;28;20115;-80
2022/03/08 16:13:37;;;;;;;5.05;3.10;;;34.10;21.10;;;;;;4974946;28;20059;-80
2022/03/08 16:16:06;;;;;;;4.55;2.90;;;34.20;21.20;;;;;;4974880;28;20047;-78
2022/03/08 16:18:33;;;;;;;4.57;3.00;;;34.10;21.10;;;;;;4974332;28;20134;-80
2022/03/08 16:21:02;;;;;;;3.92;2.97;;;33.90;21.00;;;;;;4974408;28;20063;-79
2022/03/08 16:23:31;;;;;;;4.05;3.00;;;33.50;20.90;;;;;;4974380;28;20086;-78
2022/03/08 16:25:58;;;;;;;6.28;3.67;;;33.00;21.00;;;;;;4974108;28;20058;-78
2022/03/08 16:28:25;;;;;;;5.47;3.30;;;32.60;21.00;;;;;;4973765;28;20055;-80
2022/03/08 16:30:52;;;;;;;5.30;3.40;;;31.80;21.00;;;;;;4974967;28;20089;-79
2022/03/08 16:33:20;;;;;;;5.88;3.38;;;31.30;21.10;;;;;;4979876;28;20061;-80
2022/03/08 16:35:48;;;;;;;4.85;3.40;;;31.10;21.30;;;;;;4988269;28;20114;-80
2022/03/08 16:38:16;;;;;;;5.88;3.50;;;30.90;21.40;;;;;;4985305;28;20071;-80
2022/03/08 16:40:43;;;;;;;5.63;3.85;;;30.50;21.40;;;;;;4982289;28;20464;-81
2022/03/08 16:43:11;;;;;;;5.28;3.80;;;29.90;21.50;;;;;;4972916;28;20138;-79
2022/03/08 16:45:38;;;;;;;6.85;3.60;;;29.30;21.50;;;;;;4964425;28;20404;-81
2022/03/08 16:48:06;;;;;;;5.75;3.88;;;28.70;21.60;;;;;;4970415;28;20051;-80
2022/03/08 16:50:35;;;;;;;6.32;3.78;;;28.00;21.70;;;;;;4955098;28;20129;-80
2022/03/08 16:53:02;;;;;;;5.15;3.70;;;27.40;21.90;;;;;;4959705;28;20126;-80
2022/03/08 16:55:31;;;;;;;5.82;4.07;;;26.80;22.10;;;;;;4973646;28;20050;-81
2022/03/08 16:57:58;;;;;;;7.80;4.63;;;26.10;22.20;;;;;;4973433;28;20504;-81
2022/03/08 17:00:26;;;;;;;6.35;4.50;;;25.30;22.30;;;;;;4973477;28;20524;-79
2022/03/08 17:02:54;;;;;;;5.95;4.00;;;24.50;22.50;;;;;;4967311;28;20514;-80
2022/03/08 17:05:21;;;;;;;7.13;4.30;;;23.50;22.80;;;;;;4973242;28;20504;-81
2022/03/08 17:07:50;;;;;;;6.55;4.10;;;22.60;23.20;;;;;;4971358;28;20054;-82
2022/03/08 17:10:17;;;;;;;6.53;4.40;;;21.00;23.50;;;;;;4958574;28;20053;-80
2022/03/08 17:12:44;;;;;;;6.65;4.40;;;20.70;23.90;;;;;;4954147;28;20055;-82
2022/03/08 17:15:12;;;;;;;6.97;4.18;;;20.00;24.40;;;;;;4973186;28;20153;-81
2022/03/08 17:17:39;;;;;;;6.45;4.38;;;19.10;24.80;;;;;;4973521;28;20047;-83
2022/03/08 17:20:07;;;;;;;6.45;4.00;;;18.30;25.30;;;;;;4973346;28;20062;-81
2022/03/08 17:22:34;;;;;;;8.00;4.80;;;17.50;25.80;;;;;;4973289;28;20138;-81
2022/03/08 17:25:05;;;;;;;7.60;4.97;;;16.80;26.20;;;;;;4972609;28;20130;-80
2022/03/08 17:27:33;;;;;;;6.85;4.72;;;16.10;26.70;;;;;;4964685;28;20400;-80
2022/03/08 17:30:01;;;;;;;8.20;4.75;;;15.50;27.10;;;;;;4972478;28;20055;-79
2022/03/08 17:32:28;;;;;;;7.30;4.50;;;14.90;27.40;;;;;;4974235;28;20058;-80
2022/03/08 17:34:55;;;;;;;7.32;5.00;;;14.40;27.80;;;;;;4976540;28;20051;-81
2022/03/08 17:37:22;;;;;;;6.95;4.60;;;14.00;28.20;;;;;;4972684;28;20399;-81
2022/03/08 17:39:49;;;;;;;7.30;4.85;;;13.50;28.40;;;;;;4970971;28;20062;-81
2022/03/08 17:42:18;;;;;;;7.90;4.72;;;13.10;28.80;;;;;;4966853;28;20527;-81
2022/03/08 17:44:45;;;;;;;8.30;5.30;;;12.80;29.20;;;;;;4972791;28;20145;-80
2022/03/08 17:47:12;;;;;;;10.90;5.00;;;12.50;29.50;;;;;;4972981;28;20518;-79
2022/03/08 17:49:39;;;;;;;8.73;5.25;;;12.20;29.80;;;;;;4973251;28;20047;-81
2022/03/08 17:52:06;;;;;;;9.38;5.50;;;12.00;30.00;;;;;;4970786;28;20046;-83
2022/03/08 17:54:34;;;;;;;9.85;5.90;;;11.80;30.20;;;;;;4975541;28;20053;-81
2022/03/08 17:57:02;;;;;;;9.60;5.90;;;11.60;30.60;;;;;;4979616;28;20534;-82
2022/03/08 17:59:30;;;;;;;10.07;6.03;;;11.40;30.80;;;;;;4972588;28;20047;-80
2022/03/08 18:01:57;;;;;;;8.90;6.13;;;11.20;31.10;;;;;;4971565;28;20134;-82
2022/03/08 18:04:25;;;;;;;9.13;5.75;;;11.00;31.20;;;;;;4971894;28;20047;-81
2022/03/08 18:06:52;;;;;;;10.35;6.43;;;10.80;31.60;;;;;;4973433;28;20516;-81
2022/03/08 18:09:19;;;;;;;9.98;6.57;;;10.60;31.70;;;;;;4973879;28;20523;-87
2022/03/08 18:11:47;;;;;;;9.85;6.30;;;10.50;31.90;;;;;;4975445;28;20070;-85
2022/03/08 18:14:15;;;;;;;9.85;6.00;;;10.30;32.70;;;;;;4956839;29;20400;-87
2022/03/08 18:16:43;;;;;;;9.40;5.97;;;10.20;32.40;;;;;;4964964;28;20055;-86
2022/03/08 18:19:11;;;;;;;9.65;5.90;;;10.10;32.50;;;;;;4973064;28;20521;-80
2022/03/08 18:21:38;;;;;;;9.73;5.70;;;9.90;32.70;;;;;;4974139;28;20069;-87
2022/03/08 18:24:06;;;;;;;10.23;5.75;;;9.90;33.40;;;;;;4975908;28;20051;-84
2022/03/08 18:26:33;;;;;;;8.90;5.50;;;9.80;33.30;;;;;;4958080;28;20153;-84
2022/03/08 18:29:01;;;;;;;9.18;5.97;;;9.70;33.60;;;;;;4960656;28;20134;-78